Annapolis, Maryland
Current Conditions -  °F | °C
As of 5:35 AM on Wednesday 22 Oct 2014 (Local Time) from KNAK Reporting Station
Light Rain Light Rain  
Wind Chill: 13°   Ceiling: 6000
Heat Index: 13°   Visibility: 6mi
Dew Point: 12°   Wind: 13mph
Humidity: 90%   Direction: 350°N
Pressure: 29.84"   Gusts: NA
Location:  38.98°N, 76.49°W
Report Text: KNAK 220935Z AUTO 35011KT 6SM -RA BR SCT012 OVC060 13/12 A2984 RMK AO2 P0001 T01330117
Loading
Personal Weather Stations






























Interactive Weather Map
Tropical Storm Tracking
New forecast layout! Learn more

10-Day Weather Forecast

Advertisements
Track Severe Weather on mobile